Time;durP1;ratioP1;P1;durP2;ratioP2;P2;SDS_P1;SDS_P2;PMS_P1;PMS_P2;Temp;Humidity;BMP_temperature;BMP_pressure;BME280_temperature;BME280_humidity;BME280_pressure;Samples;Min_cycle;Max_cycle;Signal;HPM_P1;HPM_P2
2022/11/29 00:01:11;;;;;;;418.15;35.00;;;8.80;99.90;;;;;;5002457;28;20136;-55
2022/11/29 00:03:36;;;;;;;375.83;32.17;;;7.70;99.90;;;;;;5010985;28;20083;-55
2022/11/29 00:06:07;;;;;;;388.02;31.20;;;9.20;99.90;;;;;;5006286;28;20164;-54
2022/11/29 00:08:34;;;;;;;123.35;22.73;;;7.40;99.90;;;;;;5007003;28;20517;-54
2022/11/29 00:11:09;;;;;;;401.20;33.60;;;7.70;99.90;;;;;;5006336;28;20038;-55
2022/11/29 00:13:35;;;;;;;161.30;24.15;;;7.50;99.90;;;;;;5005272;28;20121;-53
2022/11/29 00:16:06;;;;;;;437.95;34.88;;;7.60;99.90;;;;;;5003922;28;20083;-53
2022/11/29 00:18:32;;;;;;;411.20;35.33;;;7.40;99.90;;;;;;5006697;28;20045;-54
2022/11/29 00:20:58;;;;;;;370.38;32.88;;;8.40;99.90;;;;;;5005163;28;20037;-53
2022/11/29 00:23:23;;;;;;;466.27;36.80;;;7.60;99.90;;;;;;5007283;28;20052;-56
2022/11/29 00:25:49;;;;;;;520.90;40.10;;;7.70;99.90;;;;;;4999569;28;20045;-55
2022/11/29 00:28:15;;;;;;;333.60;33.03;;;7.50;99.90;;;;;;5008809;28;20116;-55
2022/11/29 00:30:40;;;;;;;314.33;30.35;;;8.00;99.90;;;;;;5005643;28;20037;-54
2022/11/29 00:33:06;;;;;;;172.52;25.38;;;7.60;99.90;;;;;;5001251;28;20037;-55
2022/11/29 00:35:32;;;;;;;433.15;35.78;;;7.30;99.90;;;;;;5007128;28;20123;-53
2022/11/29 00:37:57;;;;;;;312.75;31.05;;;8.00;99.90;;;;;;5009473;28;20041;-53
2022/11/29 00:40:23;;;;;;;323.52;31.85;;;7.80;99.90;;;;;;5006567;28;20037;-55
2022/11/29 00:42:49;;;;;;;237.93;28.52;;;8.20;99.90;;;;;;5002218;28;20046;-55
2022/11/29 00:45:15;;;;;;;296.85;31.02;;;8.70;99.90;;;;;;5008106;28;20117;-55
2022/11/29 00:47:41;;;;;;;266.08;29.60;;;7.30;99.90;;;;;;5004736;28;20136;-54
2022/11/29 00:50:07;;;;;;;172.30;25.02;;;7.30;99.90;;;;;;5006824;28;20131;-55
2022/11/29 00:52:33;;;;;;;227.45;28.05;;;7.20;99.90;;;;;;5003534;28;20053;-54
2022/11/29 00:54:58;;;;;;;215.15;27.95;;;8.40;99.90;;;;;;5005833;28;20044;-54
2022/11/29 00:57:24;;;;;;;243.57;28.30;;;8.60;99.90;;;;;;5005359;28;20099;-55
2022/11/29 00:59:49;;;;;;;151.65;24.83;;;7.80;99.90;;;;;;5006479;28;20044;-53
2022/11/29 01:02:15;;;;;;;144.35;24.38;;;8.20;99.90;;;;;;5006345;28;20204;-54
2022/11/29 01:04:41;;;;;;;294.33;30.50;;;8.50;99.90;;;;;;5004889;28;20132;-55
2022/11/29 01:07:07;;;;;;;190.00;26.33;;;7.10;99.90;;;;;;5007398;28;20115;-55
2022/11/29 01:09:32;;;;;;;272.33;29.33;;;9.30;99.90;;;;;;5005481;28;20068;-55
2022/11/29 01:11:58;;;;;;;253.68;28.40;;;7.60;99.90;;;;;;5001326;28;20383;-55
2022/11/29 01:14:24;;;;;;;262.00;29.33;;;7.80;99.90;;;;;;5007724;28;20060;-54
2022/11/29 01:16:50;;;;;;;379.17;34.10;;;7.60;99.90;;;;;;5003433;28;20098;-54
2022/11/29 01:19:15;;;;;;;368.00;33.63;;;7.20;99.90;;;;;;5002352;28;20048;-55
2022/11/29 01:21:41;;;;;;;333.33;32.42;;;8.10;99.90;;;;;;5005279;28;20052;-54
2022/11/29 01:24:07;;;;;;;363.77;34.03;;;8.40;99.90;;;;;;5005947;28;20135;-55
2022/11/29 01:26:32;;;;;;;175.25;24.00;;;7.20;99.90;;;;;;5001259;28;20149;-55
2022/11/29 01:28:58;;;;;;;177.88;24.98;;;7.00;99.90;;;;;;5003500;28;20045;-56
2022/11/29 01:31:30;;;;;;;294.67;30.95;;;9.00;99.90;;;;;;5006987;28;20056;-51
2022/11/29 01:33:59;;;;;;;331.33;32.88;;;7.10;99.90;;;;;;5007108;28;20045;-55
2022/11/29 01:36:25;;;;;;;184.23;27.63;;;8.20;99.90;;;;;;5007691;28;20516;-54
2022/11/29 01:38:52;;;;;;;193.40;27.55;;;7.10;99.90;;;;;;5005143;28;20038;-54
2022/11/29 01:41:24;;;;;;;121.38;22.58;;;8.90;99.90;;;;;;5006163;28;20113;-55
2022/11/29 01:44:12;;;;;;;298.20;31.52;;;7.20;99.90;;;;;;5006938;28;20520;-54
2022/11/29 01:46:41;;;;;;;179.93;27.52;;;6.90;99.90;;;;;;5005553;28;20049;-56
2022/11/29 01:49:09;;;;;;;148.63;26.63;;;5.60;99.90;;;;;;5002736;28;20521;-55
2022/11/29 01:51:37;;;;;;;93.93;22.88;;;7.90;99.90;;;;;;5002417;28;20582;-54
2022/11/29 01:54:04;;;;;;;161.50;27.08;;;7.90;99.90;;;;;;5004460;28;20111;-53
2022/11/29 01:56:32;;;;;;;119.97;24.10;;;6.90;99.90;;;;;;5003911;28;20224;-55
2022/11/29 01:59:01;;;;;;;154.07;24.23;;;6.80;99.90;;;;;;5005160;28;20067;-54
2022/11/29 02:01:27;;;;;;;157.80;26.52;;;7.60;99.90;;;;;;5003113;28;20049;-56
2022/11/29 02:03:53;;;;;;;231.18;30.30;;;7.10;99.90;;;;;;5002260;28;20060;-54
2022/11/29 02:06:19;;;;;;;181.35;27.58;;;7.50;99.90;;;;;;4998783;28;20315;-55
2022/11/29 02:08:44;;;;;;;121.38;25.85;;;7.20;99.90;;;;;;5004423;28;20041;-55
2022/11/29 02:11:37;;;;;;;289.52;30.90;;;7.60;99.90;;;;;;5004102;28;20047;-55
2022/11/29 02:14:38;;;;;;;172.30;27.20;;;6.90;99.90;;;;;;5005573;28;20064;-54
2022/11/29 02:17:28;;;;;;;200.70;29.52;;;6.90;99.90;;;;;;4971996;28;20135;-53
2022/11/29 02:20:28;;;;;;;113.25;23.48;;;6.80;99.90;;;;;;5003712;28;20049;-54
2022/11/29 02:23:06;;;;;;;169.95;28.42;;;6.90;99.90;;;;;;4987223;28;20049;-55
2022/11/29 02:25:50;;;;;;;128.77;25.50;;;6.80;99.90;;;;;;5001198;28;20049;-56
2022/11/29 02:28:34;;;;;;;159.15;25.80;;;7.70;99.90;;;;;;5000158;28;20125;-55
2022/11/29 02:31:34;;;;;;;141.55;26.00;;;6.80;99.90;;;;;;5006503;28;20053;-54
2022/11/29 02:34:06;;;;;;;259.60;31.67;;;6.90;99.90;;;;;;5002871;28;20229;-53
2022/11/29 02:36:34;;;;;;;99.45;24.23;;;6.70;99.90;;;;;;5005275;28;20512;-55
2022/11/29 02:39:26;;;;;;;158.07;26.23;;;6.80;99.90;;;;;;5007350;28;20324;-54
2022/11/29 02:42:10;;;;;;;79.32;20.45;;;6.80;99.90;;;;;;5002607;28;20079;-55
2022/11/29 02:45:32;;;;;;;339.60;33.58;;;6.70;99.90;;;;;;4997759;28;20050;-54
2022/11/29 02:48:15;;;;;;;125.15;22.17;;;6.60;99.90;;;;;;4937918;28;20404;-54
2022/11/29 02:51:11;;;;;;;314.40;30.73;;;6.70;99.90;;;;;;5000753;28;20037;-54
2022/11/29 02:53:57;;;;;;;435.00;36.30;;;6.60;99.90;;;;;;5005389;28;20050;-54
2022/11/29 02:56:35;;;;;;;145.95;22.23;;;6.60;99.90;;;;;;5001627;28;20434;-55
2022/11/29 02:59:27;;;;;;;291.38;28.48;;;6.50;99.90;;;;;;5004774;28;20037;-54
2022/11/29 03:01:56;;;;;;;358.30;30.85;;;6.60;99.90;;;;;;5005623;28;20057;-55
2022/11/29 03:04:38;;;;;;;292.77;29.52;;;6.40;99.90;;;;;;5001931;28;20096;-55
2022/11/29 03:07:25;;;;;;;191.13;23.92;;;6.50;99.90;;;;;;5002557;28;20049;-54
2022/11/29 03:09:57;;;;;;;321.08;31.20;;;7.00;99.90;;;;;;5002207;28;20081;-55
2022/11/29 03:12:28;;;;;;;299.90;30.63;;;8.10;99.90;;;;;;5003332;28;20046;-53
2022/11/29 03:15:22;;;;;;;278.83;28.20;;;6.50;99.90;;;;;;5000858;28;20046;-54
2022/11/29 03:18:13;;;;;;;267.05;28.77;;;6.60;99.90;;;;;;5002494;28;20092;-55
2022/11/29 03:21:00;;;;;;;380.63;33.83;;;6.50;99.90;;;;;;4979340;28;20702;-55
2022/11/29 03:23:40;;;;;;;171.48;24.63;;;6.40;99.90;;;;;;4998109;28;20123;-53
2022/11/29 03:26:09;;;;;;;187.73;24.67;;;6.40;99.90;;;;;;5000362;28;20037;-54
2022/11/29 03:28:47;;;;;;;244.05;28.20;;;7.30;99.90;;;;;;5000681;28;20049;-53
2022/11/29 03:31:40;;;;;;;156.75;21.88;;;6.80;99.90;;;;;;4999665;28;20061;-52
2022/11/29 03:34:15;;;;;;;168.82;23.85;;;5.30;99.90;;;;;;5003224;28;20059;-52
2022/11/29 03:36:41;;;;;;;181.85;23.25;;;6.30;99.90;;;;;;5003960;28;20037;-55
2022/11/29 03:39:16;;;;;;;208.82;25.95;;;6.30;99.90;;;;;;5002948;28;20038;-55
2022/11/29 03:41:51;;;;;;;205.23;25.42;;;6.30;99.90;;;;;;5006023;28;20060;-52
2022/11/29 03:44:21;;;;;;;227.13;27.27;;;6.20;99.90;;;;;;5004648;28;20045;-52
2022/11/29 03:46:56;;;;;;;184.15;24.10;;;6.30;99.90;;;;;;4991967;28;20526;-53
2022/11/29 03:49:36;;;;;;;189.70;24.58;;;6.30;99.90;;;;;;5005389;28;20057;-53
2022/11/29 03:52:07;;;;;;;119.05;21.42;;;6.20;99.90;;;;;;5002701;28;20548;-54
2022/11/29 03:54:57;;;;;;;128.80;21.30;;;6.20;99.90;;;;;;5000425;28;20045;-53
2022/11/29 03:57:45;;;;;;;107.60;19.15;;;6.10;99.90;;;;;;5005901;28;21130;-54
2022/11/29 04:00:12;;;;;;;195.77;23.83;;;6.20;99.90;;;;;;5003401;28;20042;-55
2022/11/29 04:02:38;;;;;;;154.05;19.83;;;6.10;99.90;;;;;;5001052;28;21304;-54
2022/11/29 04:05:24;;;;;;;172.23;20.73;;;6.60;99.90;;;;;;5001655;28;20041;-54
2022/11/29 04:08:08;;;;;;;232.73;24.33;;;6.50;99.90;;;;;;5006945;28;20042;-53
2022/11/29 04:10:34;;;;;;;238.88;23.23;;;6.70;99.90;;;;;;5002299;28;20045;-52
2022/11/29 04:13:08;;;;;;;257.88;24.95;;;6.00;99.90;;;;;;5004142;28;20042;-53
2022/11/29 04:16:01;;;;;;;213.20;22.92;;;6.00;99.90;;;;;;4998387;28;20269;-53
2022/11/29 04:19:03;;;;;;;144.32;16.35;;;5.90;99.90;;;;;;5006356;28;20041;-54
2022/11/29 04:21:41;;;;;;;111.57;17.48;;;5.90;99.90;;;;;;5002980;28;20518;-52
2022/11/29 04:24:10;;;;;;;265.70;24.50;;;5.90;99.90;;;;;;5003148;28;20041;-53
2022/11/29 04:26:52;;;;;;;326.65;27.65;;;5.90;99.90;;;;;;5001833;28;20510;-54
2022/11/29 04:29:48;;;;;;;195.93;22.08;;;5.90;99.90;;;;;;5001555;28;20046;-50
2022/11/29 04:32:29;;;;;;;129.57;17.20;;;6.00;99.90;;;;;;4997159;28;20054;-55
2022/11/29 04:34:57;;;;;;;168.82;19.98;;;6.00;99.90;;;;;;5007903;28;20132;-54
2022/11/29 04:37:38;;;;;;;233.80;25.50;;;5.90;99.90;;;;;;5001921;28;21177;-53
2022/11/29 04:40:15;;;;;;;184.50;20.70;;;5.80;99.90;;;;;;5004651;28;20108;-53
2022/11/29 04:42:51;;;;;;;151.38;19.80;;;6.10;99.90;;;;;;5001749;28;20142;-53
2022/11/29 04:45:39;;;;;;;102.70;17.38;;;5.80;99.90;;;;;;5005561;28;20037;-54
2022/11/29 04:48:42;;;;;;;72.75;14.45;;;5.80;99.90;;;;;;5001638;28;20049;-51
2022/11/29 04:51:57;;;;;;;147.98;19.92;;;5.70;99.90;;;;;;5002468;28;20056;-52
2022/11/29 04:54:44;;;;;;;137.60;17.70;;;5.80;99.90;;;;;;4967592;28;20108;-54
2022/11/29 04:57:35;;;;;;;110.22;16.10;;;5.80;99.90;;;;;;5004284;28;20034;-52
2022/11/29 05:00:12;;;;;;;151.27;17.87;;;5.80;99.90;;;;;;5000160;28;20141;-52
2022/11/29 05:02:47;;;;;;;96.53;16.13;;;5.70;99.90;;;;;;5007245;28;20144;-54
2022/11/29 05:05:40;;;;;;;87.10;15.80;;;5.70;99.90;;;;;;5005952;28;20514;-53
2022/11/29 05:08:11;;;;;;;;;;;5.80;99.90;;;;;;5005149;28;20100;-54
2022/11/29 05:11:11;;;;;;;80.82;15.38;;;5.70;99.90;;;;;;5001543;28;20541;-52
2022/11/29 05:13:50;;;;;;;150.32;19.25;;;5.70;99.90;;;;;;5008380;28;20053;-51
2022/11/29 05:16:52;;;;;;;138.57;19.55;;;5.60;99.90;;;;;;5004750;28;20403;-54
2022/11/29 05:19:47;;;;;;;122.80;17.77;;;5.70;99.90;;;;;;5003970;28;20049;-52
2022/11/29 05:22:18;;;;;;;107.97;16.70;;;5.60;99.90;;;;;;5003426;28;20077;-50
2022/11/29 05:24:50;;;;;;;103.72;16.95;;;5.70;99.90;;;;;;5005920;28;20160;-54
2022/11/29 05:27:33;;;;;;;107.53;16.92;;;5.60;99.90;;;;;;5002036;28;20098;-52
2022/11/29 05:30:11;;;;;;;112.25;16.60;;;5.50;99.90;;;;;;5007521;28;20045;-52
2022/11/29 05:33:15;;;;;;;170.13;19.27;;;5.40;99.90;;;;;;4993979;28;20518;-53
2022/11/29 05:36:09;;;;;;;112.05;17.20;;;5.60;99.90;;;;;;5006350;28;21679;-52
2022/11/29 05:38:56;;;;;;;154.75;19.77;;;5.60;99.90;;;;;;5003364;28;20045;-51
2022/11/29 05:41:47;;;;;;;126.72;16.70;;;5.60;99.90;;;;;;5003687;28;20045;-53
2022/11/29 05:44:32;;;;;;;108.78;16.77;;;5.70;99.90;;;;;;5002243;28;20068;-54
2022/11/29 05:47:08;;;;;;;133.98;17.45;;;5.50;99.90;;;;;;5004968;28;20082;-49
2022/11/29 05:49:48;;;;;;;95.72;14.68;;;5.50;99.90;;;;;;5001687;28;20187;-53
2022/11/29 05:52:51;;;;;;;87.25;17.65;;;5.60;99.90;;;;;;5004004;28;20053;-50
2022/11/29 05:55:32;;;;;;;134.13;19.20;;;5.50;99.90;;;;;;5002467;28;20065;-55
2022/11/29 05:58:07;;;;;;;153.98;21.25;;;5.50;99.90;;;;;;5005213;28;20436;-53
2022/11/29 06:01:00;;;;;;;85.05;16.77;;;5.40;99.90;;;;;;4997326;28;20046;-54
2022/11/29 06:03:43;;;;;;;83.38;15.57;;;5.60;99.90;;;;;;5002206;28;20080;-54
2022/11/29 06:06:15;;;;;;;100.35;18.85;;;5.60;99.90;;;;;;5002671;28;20045;-52
2022/11/29 06:08:49;;;;;;;125.35;18.83;;;5.50;99.90;;;;;;5019732;28;20041;-53
2022/11/29 06:11:23;;;;;;;123.72;18.02;;;5.50;99.90;;;;;;5000062;28;20044;-54
2022/11/29 06:14:16;;;;;;;144.13;19.88;;;5.60;99.90;;;;;;5002307;28;20120;-54
2022/11/29 06:17:03;;;;;;;94.88;17.13;;;5.60;99.90;;;;;;5007038;28;20445;-54
2022/11/29 06:19:36;;;;;;;106.60;17.08;;;5.60;99.90;;;;;;5002647;28;20045;-55
2022/11/29 06:22:56;;;;;;;87.95;16.48;;;5.40;99.90;;;;;;5003300;28;20053;-51
2022/11/29 06:25:34;;;;;;;89.07;15.30;;;5.50;99.90;;;;;;4950571;28;20440;-51
2022/11/29 06:28:29;;;;;;;136.25;18.65;;;5.50;99.90;;;;;;4998993;28;20569;-53
2022/11/29 06:31:01;;;;;;;126.35;18.10;;;5.50;99.90;;;;;;4998931;28;20081;-54
2022/11/29 06:33:56;;;;;;;84.18;14.35;;;5.50;99.90;;;;;;5000749;28;20074;-49
2022/11/29 06:36:40;;;;;;;184.18;22.05;;;5.50;99.90;;;;;;5004994;28;20053;-49
2022/11/29 06:39:07;;;;;;;188.18;20.45;;;5.50;99.90;;;;;;5005314;28;20029;-50
2022/11/29 06:41:33;;;;;;;134.50;17.35;;;5.40;99.90;;;;;;5002607;28;20040;-49
2022/11/29 06:43:59;;;;;;;133.32;19.92;;;5.40;99.90;;;;;;5007060;28;20054;-51
2022/11/29 06:46:37;;;;;;;102.35;16.70;;;5.60;99.90;;;;;;5004951;28;20044;-52
2022/11/29 06:49:28;;;;;;;151.02;19.80;;;5.50;99.90;;;;;;5001332;28;20434;-51
2022/11/29 06:52:08;;;;;;;108.45;16.73;;;5.60;99.90;;;;;;5006603;28;20333;-48
2022/11/29 06:54:43;;;;;;;139.88;18.85;;;5.40;99.90;;;;;;5008038;28;20037;-49
2022/11/29 06:57:34;;;;;;;110.32;18.13;;;5.50;99.90;;;;;;5004839;28;20095;-51
2022/11/29 07:00:19;;;;;;;148.00;21.45;;;5.50;99.90;;;;;;5002215;28;20525;-50
2022/11/29 07:03:06;;;;;;;155.73;21.38;;;5.50;99.90;;;;;;5005319;28;20132;-49
2022/11/29 07:05:34;;;;;;;128.75;18.25;;;5.60;99.90;;;;;;5003794;28;20091;-51
2022/11/29 07:08:07;;;;;;;146.02;20.90;;;5.50;99.90;;;;;;5000417;28;20037;-53
2022/11/29 07:10:37;;;;;;;87.32;16.42;;;5.40;99.90;;;;;;5002852;28;20049;-48
2022/11/29 07:13:03;;;;;;;78.00;16.75;;;5.50;99.90;;;;;;5017095;28;20052;-52
2022/11/29 07:15:29;;;;;;;110.15;20.25;;;5.40;99.90;;;;;;5001947;28;20512;-50
2022/11/29 07:18:07;;;;;;;91.72;17.80;;;5.40;99.90;;;;;;5003829;28;20046;-48
2022/11/29 07:20:47;;;;;;;92.15;19.20;;;5.30;99.90;;;;;;5001721;28;20176;-52
2022/11/29 07:23:31;;;;;;;121.60;20.08;;;5.40;99.90;;;;;;5000515;28;20471;-49
2022/11/29 07:26:23;;;;;;;105.38;18.77;;;5.50;99.90;;;;;;5004552;28;20326;-53
2022/11/29 07:29:23;;;;;;;91.27;23.83;;;5.30;99.90;;;;;;4983009;28;20383;-51
2022/11/29 07:32:03;;;;;;;122.20;28.17;;;5.30;99.90;;;;;;4994818;28;20053;-54
2022/11/29 07:34:31;;;;;;;60.40;20.35;;;5.30;99.90;;;;;;5002555;28;20159;-47
2022/11/29 07:37:00;;;;;;;71.95;20.73;;;5.50;99.90;;;;;;5004877;28;20037;-52
2022/11/29 07:39:35;;;;;;;61.60;20.17;;;5.30;99.90;;;;;;5004674;28;20072;-50
2022/11/29 07:42:18;;;;;;;81.43;19.10;;;5.30;99.90;;;;;;5003120;28;20069;-49
2022/11/29 07:44:49;;;;;;;74.60;18.73;;;5.40;99.90;;;;;;5002109;28;20038;-50
2022/11/29 07:47:15;;;;;;;75.55;22.15;;;5.30;99.90;;;;;;5003852;28;20054;-48
2022/11/29 07:49:41;;;;;;;75.05;18.98;;;5.30;99.90;;;;;;5001946;28;20068;-48
2022/11/29 07:52:14;;;;;;;65.43;23.05;;;5.20;99.90;;;;;;5005599;28;20088;-49
2022/11/29 07:54:40;;;;;;;45.28;20.38;;;5.30;99.90;;;;;;4999035;28;20591;-53
2022/11/29 07:57:06;;;;;;;38.42;17.90;;;;;;;;;;5005065;28;20030;-48
2022/11/29 07:59:32;;;;;;;48.05;17.88;;;;;;;;;;5001552;28;20065;-50
2022/11/29 08:01:58;;;;;;;50.90;21.83;;;5.40;99.90;;;;;;5004472;28;20049;-50
2022/11/29 08:04:24;;;;;;;53.13;23.60;;;;;;;;;;5004716;28;20872;-49
2022/11/29 08:06:50;;;;;;;57.25;22.50;;;5.50;99.90;;;;;;5005847;28;20052;-50
2022/11/29 08:09:16;;;;;;;49.17;20.60;;;5.60;99.90;;;;;;5005685;28;20098;-48
2022/11/29 08:11:41;;;;;;;44.15;21.90;;;5.60;99.90;;;;;;5000103;28;20053;-51
2022/11/29 08:14:07;;;;;;;39.92;16.35;;;5.60;99.90;;;;;;5005557;28;20045;-51
2022/11/29 08:16:33;;;;;;;45.80;19.70;;;5.60;99.90;;;;;;5002475;28;20683;-51
2022/11/29 08:18:59;;;;;;;28.50;15.77;;;5.70;99.90;;;;;;5000962;28;20120;-48
2022/11/29 08:21:25;;;;;;;44.20;18.58;;;5.80;99.90;;;;;;5006073;28;21259;-48
2022/11/29 08:23:51;;;;;;;48.33;17.70;;;5.90;99.90;;;;;;5008805;28;20684;-49
2022/11/29 08:26:19;;;;;;;38.78;17.70;;;6.00;99.90;;;;;;5005493;28;20049;-49
2022/11/29 08:28:48;;;;;;;39.25;18.35;;;6.10;99.90;;;;;;5007325;28;20120;-49
2022/11/29 08:31:13;;;;;;;39.70;15.65;;;6.10;99.90;;;;;;5003632;28;20050;-51
2022/11/29 08:33:41;;;;;;;43.42;16.98;;;6.00;99.90;;;;;;5005320;28;20057;-49
2022/11/29 08:36:17;;;;;;;41.53;17.48;;;6.10;99.90;;;;;;5001873;28;20092;-53
2022/11/29 08:38:43;;;;;;;39.17;16.23;;;6.40;99.90;;;;;;5004299;28;20037;-51
2022/11/29 08:41:12;;;;;;;46.70;17.42;;;7.00;99.90;;;;;;5002801;28;20044;-50
2022/11/29 08:43:39;;;;;;;49.08;20.13;;;6.40;99.90;;;;;;5007004;28;20100;-51
2022/11/29 08:46:05;;;;;;;36.10;16.60;;;8.40;99.90;;;;;;5007404;28;20056;-52
2022/11/29 08:48:30;;;;;;;35.05;14.00;;;6.60;99.90;;;;;;5008111;28;20050;-51
2022/11/29 08:50:57;;;;;;;41.28;16.25;;;6.50;99.90;;;;;;5017776;28;20048;-49
2022/11/29 08:53:42;;;;;;;39.10;14.65;;;7.10;99.90;;;;;;5006294;28;20045;-50
2022/11/29 08:56:13;;;;;;;33.38;13.10;;;6.70;99.90;;;;;;5005180;28;20051;-53
2022/11/29 08:58:41;;;;;;;41.22;15.25;;;6.70;99.90;;;;;;5004242;28;20098;-51
2022/11/29 09:01:14;;;;;;;44.88;15.00;;;6.80;99.90;;;;;;5003630;28;20063;-48
2022/11/29 09:04:01;;;;;;;38.42;12.95;;;7.70;99.90;;;;;;5008915;28;20132;-49
2022/11/29 09:06:33;;;;;;;30.40;13.35;;;6.90;99.90;;;;;;5005028;28;20050;-50
2022/11/29 09:09:00;;;;;;;35.05;12.82;;;8.30;99.90;;;;;;5006756;28;20108;-50
2022/11/29 09:11:27;;;;;;;36.13;13.70;;;7.00;99.90;;;;;;5003404;28;20048;-48
2022/11/29 09:13:56;;;;;;;34.38;12.52;;;7.10;99.90;;;;;;5004835;28;20802;-47
2022/11/29 09:16:25;;;;;;;31.38;12.35;;;7.70;99.90;;;;;;5006251;28;20049;-54
2022/11/29 09:18:53;;;;;;;44.17;20.30;;;7.20;99.90;;;;;;5005011;28;20119;-51
2022/11/29 09:21:19;;;;;;;33.55;15.57;;;7.60;99.90;;;;;;5006174;28;20087;-50
2022/11/29 09:23:45;;;;;;;37.80;13.02;;;7.60;99.90;;;;;;5005836;28;20123;-51
2022/11/29 09:26:16;;;;;;;33.10;12.25;;;7.50;99.90;;;;;;5006399;28;20120;-52
2022/11/29 09:28:42;;;;;;;28.52;11.30;;;7.80;99.90;;;;;;5005425;28;20686;-50
2022/11/29 09:31:11;;;;;;;28.02;10.85;;;8.50;99.90;;;;;;5007216;28;21065;-53
2022/11/29 09:33:38;;;;;;;25.60;11.38;;;7.70;99.90;;;;;;5005489;28;20139;-50
2022/11/29 09:36:05;;;;;;;33.72;11.85;;;5.70;99.90;;;;;;5007425;28;20387;-51
2022/11/29 09:38:32;;;;;;;27.05;10.20;;;7.70;99.90;;;;;;5003292;28;20494;-47
2022/11/29 09:41:26;;;;;;;27.98;9.45;;;8.80;99.90;;;;;;5002121;28;20656;-51
2022/11/29 09:44:15;;;;;;;30.02;10.18;;;8.00;99.90;;;;;;5003919;28;20072;-50
2022/11/29 09:47:01;;;;;;;28.83;9.32;;;7.70;99.90;;;;;;5008440;28;20062;-50
2022/11/29 09:49:46;;;;;;;27.13;9.18;;;9.90;99.90;;;;;;5003332;28;20052;-52
2022/11/29 09:52:25;;;;;;;25.38;8.45;;;8.10;99.90;;;;;;5003858;28;20522;-53
2022/11/29 09:55:00;;;;;;;25.52;9.25;;;10.10;99.90;;;;;;5002207;28;20053;-51
2022/11/29 09:57:29;;;;;;;26.65;9.93;;;8.30;99.90;;;;;;5012052;28;20775;-48
2022/11/29 10:00:00;;;;;;;29.80;9.32;;;10.30;99.90;;;;;;5003997;28;20402;-51
2022/11/29 10:02:36;;;;;;;34.55;9.48;;;9.10;99.90;;;;;;5005002;28;20076;-48
2022/11/29 10:05:12;;;;;;;29.50;9.32;;;8.80;99.90;;;;;;5007200;28;20099;-54
2022/11/29 10:07:47;;;;;;;30.02;9.30;;;8.80;99.90;;;;;;5006398;28;20137;-53
2022/11/29 10:10:27;;;;;;;26.58;8.93;;;10.80;99.90;;;;;;5003575;28;20528;-54
2022/11/29 10:13:07;;;;;;;33.17;8.13;;;8.90;99.90;;;;;;5004568;28;20179;-54
2022/11/29 10:15:39;;;;;;;25.25;8.48;;;10.00;99.90;;;;;;4998702;28;20380;-53
2022/11/29 10:18:07;;;;;;;;;;;9.30;99.90;;;;;;5005071;28;20110;-56
2022/11/29 10:20:38;;;;;;;24.02;8.75;;;8.70;99.90;;;;;;5003798;28;20351;-49
2022/11/29 10:23:27;;;;;;;30.40;9.57;;;9.00;99.90;;;;;;5002716;28;20045;-47
2022/11/29 10:25:55;;;;;;;26.92;9.02;;;8.70;99.90;;;;;;5003171;28;20429;-54
2022/11/29 10:28:30;;;;;;;25.08;8.85;;;8.70;99.90;;;;;;5003520;28;20045;-49
2022/11/29 10:31:01;;;;;;;33.83;10.40;;;8.90;99.90;;;;;;5004524;28;20693;-50
2022/11/29 10:33:34;;;;;;;28.67;9.20;;;8.70;99.90;;;;;;5007122;28;20049;-53
2022/11/29 10:36:15;;;;;;;36.22;9.73;;;8.80;99.90;;;;;;5001370;28;20049;-51
2022/11/29 10:38:43;;;;;;;30.63;9.27;;;8.80;99.90;;;;;;5004513;28;20443;-52
2022/11/29 10:41:14;;;;;;;27.70;7.07;;;8.70;99.90;;;;;;5002994;28;20056;-54
2022/11/29 10:43:40;;;;;;;28.03;9.23;;;9.50;99.90;;;;;;5002285;28;20332;-49
2022/11/29 10:46:14;;;;;;;28.35;9.13;;;8.80;99.90;;;;;;5003304;28;20411;-53
2022/11/29 10:48:40;;;;;;;22.45;8.63;;;9.10;99.90;;;;;;4984614;28;20111;-53
2022/11/29 10:51:15;;;;;;;33.58;9.75;;;8.70;99.90;;;;;;5004540;28;20136;-54
2022/11/29 10:53:41;;;;;;;31.02;8.23;;;9.00;99.90;;;;;;5004619;28;20112;-51
2022/11/29 10:56:15;;;;;;;31.92;8.93;;;10.80;99.90;;;;;;5001853;28;20046;-51
2022/11/29 10:59:06;;;;;;;35.65;10.85;;;9.10;99.90;;;;;;5004226;28;20143;-50
2022/11/29 11:01:42;;;;;;;36.08;9.68;;;9.10;99.90;;;;;;4999927;28;20046;-53
2022/11/29 11:04:20;;;;;;;18.33;7.68;;;9.20;99.90;;;;;;5001496;28;20111;-54
2022/11/29 11:06:50;;;;;;;23.77;8.68;;;9.40;99.90;;;;;;5002106;28;20060;-51
2022/11/29 11:09:28;;;;;;;25.80;8.43;;;9.00;99.90;;;;;;5002755;28;20355;-51
2022/11/29 11:11:59;;;;;;;28.40;9.15;;;9.20;99.90;;;;;;5005256;28;20045;-49
2022/11/29 11:14:45;;;;;;;24.50;9.63;;;9.10;99.90;;;;;;5006572;28;20481;-54
2022/11/29 11:17:26;;;;;;;20.30;9.60;;;9.30;99.90;;;;;;5003803;28;20065;-53
2022/11/29 11:20:00;;;;;;;27.70;10.25;;;11.30;99.90;;;;;;5003820;28;20434;-55
2022/11/29 11:22:28;;;;;;;23.95;10.18;;;9.40;99.90;;;;;;5003097;28;20045;-54
2022/11/29 11:25:00;;;;;;;25.42;10.82;;;9.60;99.90;;;;;;4998609;28;20515;-54
2022/11/29 11:27:31;;;;;;;21.30;9.60;;;10.40;99.90;;;;;;5002315;28;20076;-53
2022/11/29 11:29:58;;;;;;;17.42;9.50;;;9.50;99.90;;;;;;4982794;28;20332;-55
2022/11/29 11:32:24;;;;;;;26.27;10.20;;;9.60;99.90;;;;;;5000773;28;20050;-53
2022/11/29 11:34:55;;;;;;;19.17;9.70;;;10.60;99.90;;;;;;5004225;28;20656;-51
2022/11/29 11:37:26;;;;;;;21.48;9.10;;;9.60;99.90;;;;;;4998852;28;20403;-53
2022/11/29 11:39:56;;;;;;;26.67;11.05;;;9.70;99.90;;;;;;5002569;28;20574;-52
2022/11/29 11:42:38;;;;;;;18.83;9.70;;;9.80;99.90;;;;;;5003697;28;20092;-50
2022/11/29 11:45:24;;;;;;;16.38;10.27;;;9.70;99.90;;;;;;4997529;28;20380;-52
2022/11/29 11:47:53;;;;;;;19.85;11.98;;;9.60;99.90;;;;;;4996733;28;20064;-54
2022/11/29 11:50:52;;;;;;;20.73;11.45;;;9.70;99.90;;;;;;5004116;28;20077;-49
2022/11/29 11:53:37;;;;;;;23.52;12.35;;;9.50;99.90;;;;;;4985909;28;20124;-52
2022/11/29 11:56:10;;;;;;;20.08;11.23;;;9.50;99.90;;;;;;5005271;28;20080;-52
2022/11/29 11:58:56;;;;;;;19.38;10.27;;;9.90;99.90;;;;;;5002159;28;20506;-50
2022/11/29 12:01:35;;;;;;;16.45;9.75;;;9.50;99.90;;;;;;5002840;28;20305;-53
2022/11/29 12:04:34;;;;;;;15.80;10.25;;;11.10;99.90;;;;;;5004371;28;20041;-54
2022/11/29 12:07:08;;;;;;;24.65;13.63;;;10.20;99.90;;;;;;4998126;28;20102;-52
2022/11/29 12:09:41;;;;;;;18.25;9.65;;;9.90;99.90;;;;;;5005798;28;20387;-52
2022/11/29 12:12:25;;;;;;;21.05;12.70;;;10.00;99.90;;;;;;5011448;28;20037;-52
2022/11/29 12:15:06;;;;;;;14.48;8.88;;;9.50;99.90;;;;;;5008572;28;20034;-53
2022/11/29 12:17:48;;;;;;;12.90;6.70;;;9.40;99.90;;;;;;5002218;28;20041;-55
2022/11/29 12:20:30;;;;;;;;;;;9.40;99.90;;;;;;5005394;28;20050;-53
2022/11/29 12:23:11;;;;;;;11.93;6.00;;;9.40;99.90;;;;;;5002639;28;19936;-51
2022/11/29 12:25:51;;;;;;;10.93;5.97;;;9.30;99.90;;;;;;5005018;28;20040;-52
2022/11/29 12:28:19;;;;;;;10.07;6.28;;;9.40;99.90;;;;;;5010012;28;20048;-54
2022/11/29 12:31:02;;;;;;;10.60;6.57;;;11.30;99.90;;;;;;5004007;28;20407;-53
2022/11/29 12:34:01;;;;;;;13.77;7.75;;;9.50;99.90;;;;;;5008270;28;20041;-52
2022/11/29 12:36:48;;;;;;;13.75;7.40;;;9.50;99.90;;;;;;5006209;28;20054;-53
2022/11/29 12:39:17;;;;;;;9.85;6.70;;;9.40;99.90;;;;;;5002623;28;20465;-51
2022/11/29 12:41:59;;;;;;;12.18;8.00;;;9.40;99.90;;;;;;4998347;28;20092;-51
2022/11/29 12:44:40;;;;;;;14.77;8.85;;;9.40;99.90;;;;;;5002234;28;20052;-52
2022/11/29 12:47:12;;;;;;;13.25;8.23;;;9.40;99.90;;;;;;5005894;28;20111;-53
2022/11/29 12:50:00;;;;;;;14.30;8.73;;;9.90;99.90;;;;;;5005555;28;20046;-52
2022/11/29 12:52:28;;;;;;;14.35;9.05;;;9.30;99.90;;;;;;5004920;28;20037;-52
2022/11/29 12:55:16;;;;;;;9.73;6.07;;;11.30;99.90;;;;;;5003665;28;20049;-52
2022/11/29 12:58:20;;;;;;;12.27;6.00;;;9.30;99.90;;;;;;5005977;28;20103;-53
2022/11/29 13:01:07;;;;;;;7.72;4.88;;;9.30;99.90;;;;;;5005577;28;20401;-50
2022/11/29 13:04:02;;;;;;;7.15;4.80;;;9.10;99.90;;;;;;5005446;28;20052;-54
2022/11/29 13:06:51;;;;;;;9.20;5.88;;;9.20;99.90;;;;;;5003595;28;20414;-50
2022/11/29 13:09:23;;;;;;;10.82;5.40;;;9.30;99.90;;;;;;5005802;28;20084;-52
2022/11/29 13:11:57;;;;;;;6.93;5.40;;;9.20;99.90;;;;;;5009425;28;20073;-52
2022/11/29 13:14:35;;;;;;;8.93;5.60;;;9.30;99.90;;;;;;5009076;28;20098;-54
2022/11/29 13:17:04;;;;;;;8.52;5.50;;;9.80;99.90;;;;;;5003370;28;20048;-52
2022/11/29 13:20:02;;;;;;;9.63;5.70;;;9.10;99.90;;;;;;5001966;28;20523;-48
2022/11/29 13:22:34;;;;;;;7.45;5.57;;;8.90;99.90;;;;;;4998855;28;20104;-53